• Join FlightAware (Why Join?)
  • Login
  • US Flag 
01:32AM EDT


 

Airport Tracker/Info


-or-


 

Live Flight TrackerFlight Track Log ✈ UAL252 ✈ 31-Jul-2013 ✈ KEWR - KBOS

Flight Track Log - Related Links

Times and Time Zones

All times are in EDT time to prevent confusion due to time zone crossing. See the UAL252 flight status page for this flight to view local times or setup timezone preferences in your user account.

Time Position Orientation Groundspeed Altitude Reporting Facility
EDT Latitude Longitude Course Direction KTS MPH feet Rate Location/Type
06:27AM 40.7000 -74.1500 51° Northeast 160 184 1,100  Level New York TRACON
06:28AM 40.7500 -74.1167 27° Northeast 209 241 3,000 2,520 Climbing New York TRACON
06:30AM 40.8416 -73.9250 37° Northeast  Level FlightAware Approximate
06:30AM 40.8397 -73.9433 56° Northeast 250 288 9,600  Level Boston Center
06:31AM 40.8960 -73.8490 47° Northeast  Level FlightAware Approximate
06:32AM 40.9532 -73.7688 47° Northeast  Level FlightAware Approximate
06:32AM 40.8972 -73.8569 49° Northeast 277 319 11,100  Level Boston Center
06:32AM 40.9692 -73.7569 46° Northeast 334 384 13,300 2,400 Climbing Boston Center
06:33AM 41.0075 -73.6821 51° Northeast  Level FlightAware Approximate
06:33AM 41.0206 -73.6342 61° Northeast 369 425 15,800  Level Boston Center
06:34AM 41.0594 -73.5081 68° East 396 456 17,600 1,740 Climbing Boston Center
06:35AM 41.1150 -73.3492 65° Northeast 413 475 19,400 1,680 Climbing Boston Center
06:36AM 41.1578 -73.2175 67° East 418 481 21,000 780 Climbing Boston Center
06:38AM 41.2044 -73.0692 67° East 423 487 21,000  Level Boston Center
06:39AM 41.2531 -72.9178 67° East 434 499 21,000  Level Boston Center
06:39AM 41.3058 -72.7661 65° Northeast 434 499 21,000  Level Boston Center
06:40AM 41.3542 -72.6144 67° East 439 505 21,000  Level Boston Center
06:41AM 41.4000 -72.4622 68° East 439 505 21,000  Level Boston Center
06:42AM 41.4500 -72.3072 67° East 439 505 21,000  Level Boston Center
06:43AM 41.4997 -72.1547 66° East 438 504 21,000  Level Boston Center
06:45AM 41.5492 -71.9964 67° East 444 511 21,000 -300 Level Boston Center
06:46AM 41.5986 -71.8378 67° East 457 526 20,400 -1,200 Descending Boston Center
06:46AM 41.6494 -71.6678 68° East 452 520 18,700 -1,980 Descending Boston Center
06:47AM 41.6964 -71.5169 67° East 452 520 16,600 -2,160 Descending Boston Center
06:48AM 41.7411 -71.3939 64° Northeast 420 483 14,500 -2,280 Descending Boston Center
06:49AM 41.8022 -71.2508 60° Northeast 403 464 12,100 -1,740 Descending Boston Center
06:50AM 41.8489 -71.1414 60° Northeast 377 434 11,100 -1,020 Descending Boston Center
06:51AM 41.8997 -71.0233 60° Northeast 342 394 10,100 -900 Descending Boston Center
06:52AM 41.9403 -70.9358 58° Northeast 312 359 9,300 -1,140 Descending Boston Center
06:53AM 41.9994 -70.8506 47° Northeast 287 330 7,900 -1,320 Descending Boston Center
06:55AM 42.0508 -70.7906 41° Northeast 276 318 6,700 -1,140 Descending Boston Center
06:56AM 42.1081 -70.7247 40° Northeast 276 318 5,700 -840 Descending Boston Center
06:57AM 42.1625 -70.7286 357° North 212 244 5,100 -720 Descending Boston Center
06:58AM 42.1986 -70.7839 311° West 176 203 4,300 -960 Descending Boston Center
06:58AM 42.2347 -70.8306 316° Northwest 176 203 3,300 -1,020 Descending Boston Center
06:59AM 42.2708 -70.8828 313° West 171 197 2,300 -900 Descending Boston Center
07:01AM 42.3006 -70.9214 316° Northwest 171 197 1,500 -840 Descending Boston Center
07:01AM 42.3325 -70.9600 318° Northwest 138 159 700 -840 Descending Boston Center
07:04AM 42.3500 -71.0000 304° West  Level FlightAware Approximate
07:11AM 42.3630 -71.0064 304° West  Level Estimated